Time;durP1;ratioP1;P1;durP2;ratioP2;P2;SDS_P1;SDS_P2;PMS_P1;PMS_P2;Temp;Humidity;BMP_temperature;BMP_pressure;BME280_temperature;BME280_humidity;BME280_pressure;Samples;Min_cycle;Max_cycle;Signal;HPM_P1;HPM_P2
2021/11/04 00:04:34;;;;;;;18.17;15.05;;;;;;;;;;10340164;28;20046;-85
2021/11/04 00:09:35;;;;;;;20.40;13.95;;;;;;;;;;10354932;28;20071;-85
2021/11/04 00:14:35;;;;;;;21.27;13.63;;;;;;;;;;10340349;28;20026;-85
2021/11/04 00:19:35;;;;;;;18.25;14.15;;;;;;;;;;10338727;28;20026;-85
2021/11/04 00:24:36;;;;;;;20.08;12.95;;;;;;;;;;10338904;28;20503;-85
2021/11/04 00:29:36;;;;;;;21.98;14.30;;;;;;;;;;10354507;28;20041;-85
2021/11/04 00:34:36;;;;;;;16.60;12.50;;;;;;;;;;10337872;28;20030;-85
2021/11/04 00:39:36;;;;;;;14.98;13.25;;;;;;;;;;10354239;28;20034;-85
2021/11/04 00:44:37;;;;;;;20.77;13.55;;;;;;;;;;10346898;28;20026;-84
2021/11/04 00:49:37;;;;;;;22.90;12.13;;;;;;;;;;10348352;28;20030;-85
2021/11/04 00:54:37;;;;;;;15.13;13.05;;;;;;;;;;10340651;28;20035;-85
2021/11/04 00:59:37;;;;;;;14.00;11.43;;;;;;;;;;10340557;28;20113;-85
2021/11/04 01:04:38;;;;;;;13.60;12.20;;;;;;;;;;10341391;28;20117;-85
2021/11/04 01:09:38;;;;;;;13.77;12.25;;;;;;;;;;10367071;28;20061;-85
2021/11/04 01:14:38;;;;;;;12.68;11.27;;;;;;;;;;10376468;28;20018;-85
2021/11/04 01:19:38;;;;;;;17.45;12.80;;;;;;;;;;10379133;28;20480;-85
2021/11/04 01:24:39;;;;;;;22.60;11.57;;;;;;;;;;10375815;28;20125;-85
2021/11/04 01:29:39;;;;;;;32.42;12.73;;;;;;;;;;10348799;28;20054;-85
2021/11/04 01:34:39;;;;;;;13.93;11.55;;;;;;;;;;10354879;28;20288;-85
2021/11/04 01:39:39;;;;;;;15.65;11.60;;;;;;;;;;10339889;28;20845;-84
2021/11/04 01:44:39;;;;;;;14.60;13.18;;;;;;;;;;10354969;28;20054;-85
2021/11/04 01:49:41;;;;;;;11.88;10.60;;;;;;;;;;10347991;28;20034;-84
2021/11/04 01:54:41;;;;;;;17.77;11.73;;;;;;;;;;10365592;28;20038;-85
2021/11/04 01:59:41;;;;;;;13.75;11.70;;;;;;;;;;10358301;28;20089;-85
2021/11/04 02:04:42;;;;;;;16.42;13.45;;;;;;;;;;10351155;28;20109;-85
2021/11/04 02:09:44;;;;;;;17.55;14.38;;;;;;;;;;10334228;28;20054;-85
2021/11/04 02:14:45;;;;;;;19.50;13.93;;;;;;;;;;10335654;28;20058;-85
2021/11/04 02:19:48;;;;;;;18.92;13.25;;;;;;;;;;10350082;28;20018;-85
2021/11/04 02:25:15;;;;;;;18.67;13.20;;;;;;;;;;10334705;28;20097;-85
2021/11/04 02:30:15;;;;;;;19.38;15.07;;;;;;;;;;10331563;28;20038;-85
2021/11/04 02:35:16;;;;;;;24.80;15.45;;;;;;;;;;10334496;28;20480;-85
2021/11/04 02:40:16;;;;;;;17.40;13.75;;;;;;;;;;10350535;28;20026;-85
2021/11/04 02:45:18;;;;;;;18.07;13.73;;;;;;;;;;10356599;28;20101;-84
2021/11/04 02:50:18;;;;;;;18.92;13.05;;;;;;;;;;10357707;28;20272;-85
2021/11/04 02:55:19;;;;;;;21.02;14.02;;;;;;;;;;10358520;28;20026;-85
2021/11/04 03:00:19;;;;;;;12.40;10.93;;;;;;;;;;10358084;28;20380;-85
2021/11/04 03:05:19;;;;;;;15.45;12.65;;;;;;;;;;10341174;28;20037;-85
2021/11/04 03:10:20;;;;;;;14.30;12.93;;;;;;;;;;10343066;28;20054;-85
2021/11/04 03:15:20;;;;;;;15.30;12.82;;;;;;;;;;10383643;28;20027;-86
2021/11/04 03:20:21;;;;;;;17.27;12.68;;;;;;;;;;10356900;28;20033;-84
2021/11/04 03:25:21;;;;;;;16.20;11.87;;;;;;;;;;10356790;28;20101;-85
2021/11/04 03:30:22;;;;;;;15.52;11.02;;;;;;;;;;10340659;28;20319;-84
2021/11/04 03:35:23;;;;;;;21.58;11.93;;;;;;;;;;10341214;28;20030;-85
2021/11/04 03:40:23;;;;;;;13.68;11.43;;;;;;;;;;10341463;28;20117;-85
2021/11/04 03:45:23;;;;;;;19.33;12.90;;;;;;;;;;10356426;28;20038;-85
2021/11/04 03:50:24;;;;;;;12.50;11.13;;;;;;;;;;10340129;28;20030;-85
2021/11/04 03:55:26;;;;;;;17.98;12.52;;;;;;;;;;10338432;28;20502;-84
2021/11/04 04:00:26;;;;;;;16.05;12.70;;;;;;;;;;10355733;28;20022;-85
2021/11/04 04:05:27;;;;;;;13.80;11.93;;;;;;;;;;10340036;28;20023;-84
2021/11/04 04:10:28;;;;;;;18.45;13.35;;;;;;;;;;10340263;28;20141;-86
2021/11/04 04:15:28;;;;;;;12.65;11.32;;;;;;;;;;10340617;28;20110;-85
2021/11/04 04:20:29;;;;;;;18.58;13.10;;;;;;;;;;10339967;28;20029;-85
2021/11/04 04:25:30;;;;;;;14.75;11.45;;;;;;;;;;10345232;28;20081;-84
2021/11/04 04:30:31;;;;;;;15.02;9.85;;;;;;;;;;10352599;28;20448;-86
2021/11/04 04:35:31;;;;;;;11.30;10.20;;;;;;;;;;10339493;28;20085;-85
2021/11/04 04:40:32;;;;;;;13.20;10.85;;;;;;;;;;10340042;28;20349;-85
2021/11/04 04:45:32;;;;;;;21.17;10.57;;;;;;;;;;10354172;28;20030;-85
2021/11/04 04:50:32;;;;;;;10.80;9.75;;;;;;;;;;10338234;28;20383;-85
2021/11/04 04:55:32;;;;;;;14.38;9.50;;;;;;;;;;10353696;28;20046;-85
2021/11/04 05:00:33;;;;;;;18.50;12.05;;;;;;;;;;10353442;28;20052;-86
2021/11/04 05:05:34;;;;;;;10.60;9.55;;;;;;;;;;10337763;28;20435;-85
2021/11/04 05:10:34;;;;;;;9.75;8.73;;;;;;;;;;10338444;28;20058;-86
2021/11/04 05:15:34;;;;;;;24.05;10.65;;;;;;;;;;10337516;28;20027;-86
2021/11/04 05:20:35;;;;;;;9.27;8.40;;;;;;;;;;10338358;28;20034;-84
2021/11/04 05:25:35;;;;;;;8.88;8.02;;;;;;;;;;10352893;28;20034;-85
2021/11/04 05:30:35;;;;;;;8.52;7.50;;;;;;;;;;10335746;28;20026;-86
2021/11/04 05:35:36;;;;;;;8.38;7.32;;;;;;;;;;10335679;28;20480;-86
2021/11/04 05:40:37;;;;;;;10.07;6.03;;;;;;;;;;10346954;28;20268;-84
2021/11/04 05:45:37;;;;;;;7.70;6.95;;;;;;;;;;10337542;28;20124;-86
2021/11/04 05:50:37;;;;;;;17.55;9.35;;;;;;;;;;10351439;28;20053;-85
2021/11/04 05:55:37;;;;;;;8.50;7.60;;;;;;;;;;10335693;28;20045;-85
2021/11/04 06:00:38;;;;;;;9.63;6.85;;;;;;;;;;10336421;28;20113;-85
2021/11/04 06:05:38;;;;;;;10.98;6.28;;;;;;;;;;10336548;28;20045;-83
2021/11/04 06:10:39;;;;;;;8.30;7.13;;;;;;;;;;10339117;28;20054;-80
2021/11/04 06:15:39;;;;;;;9.60;7.03;;;;;;;;;;10339005;28;20353;-81
2021/11/04 06:20:39;;;;;;;6.55;5.80;;;;;;;;;;10350249;28;20283;-81
2021/11/04 06:25:39;;;;;;;6.78;5.57;;;;;;;;;;10351117;28;20030;-79
2021/11/04 06:30:39;;;;;;;9.57;5.72;;;;;;;;;;10336207;28;20030;-80
2021/11/04 06:35:40;;;;;;;5.47;5.03;;;;;;;;;;10350682;28;20479;-82
2021/11/04 06:40:40;;;;;;;10.25;5.75;;;;;;;;;;10333656;28;20030;-83
2021/11/04 06:45:42;;;;;;;7.45;5.88;;;;;;;;;;10334811;28;20058;-83
2021/11/04 06:50:43;;;;;;;16.73;4.97;;;;;;;;;;10333056;28;20041;-82
2021/11/04 06:55:43;;;;;;;7.13;5.68;;;;;;;;;;10335090;28;20379;-83
2021/11/04 07:00:45;;;;;;;6.30;5.63;;;;;;;;;;10333343;28;20022;-83
2021/11/04 07:05:45;;;;;;;13.88;5.82;;;;;;;;;;10335166;28;20029;-83
2021/11/04 07:10:55;;;;;;;6.63;6.00;;;;;;;;;;10349224;28;20054;-83
2021/11/04 07:15:55;;;;;;;8.18;7.38;;;;;;;;;;10334809;28;20244;-83
2021/11/04 07:20:57;;;;;;;9.70;6.80;;;;;;;;;;10334890;28;20085;-84
2021/11/04 07:25:57;;;;;;;7.05;5.40;;;;;;;;;;10332990;28;20548;-83
2021/11/04 07:30:57;;;;;;;8.95;6.18;;;;;;;;;;10340344;28;20109;-83
2021/11/04 07:35:58;;;;;;;9.40;4.40;;;;;;;;;;10356407;28;20550;-83
2021/11/04 07:40:58;;;;;;;4.93;4.13;;;;;;;;;;10340734;28;20029;-84
2021/11/04 07:45:58;;;;;;;7.40;4.18;;;;;;;;;;10357466;28;20026;-84
2021/11/04 07:50:58;;;;;;;12.30;4.72;;;;;;;;;;10342527;28;20037;-83
2021/11/04 07:55:59;;;;;;;10.82;4.50;;;;;;;;;;10341839;28;20448;-83
2021/11/04 08:00:59;;;;;;;4.05;3.45;;;;;;;;;;10359441;28;20453;-84
2021/11/04 08:06:00;;;;;;;9.18;3.78;;;;;;;;;;10342513;28;20105;-83
2021/11/04 08:11:00;;;;;;;7.07;3.45;;;;;;;;;;10346421;28;20086;-84
2021/11/04 08:16:00;;;;;;;4.50;2.38;;;;;;;;;;10356631;28;20058;-84
2021/11/04 08:21:00;;;;;;;7.22;4.05;;;;;;;;;;10398424;28;20026;-82
2021/11/04 08:26:01;;;;;;;5.05;3.15;;;;;;;;;;10364606;28;20087;-83
2021/11/04 08:31:01;;;;;;;12.93;4.20;;;;;;;;;;10350253;28;20380;-82
2021/11/04 08:36:01;;;;;;;5.75;4.20;;;;;;;;;;10342541;28;20101;-83
2021/11/04 08:41:01;;;;;;;5.93;3.08;;;;;;;;;;10354112;28;20491;-84
2021/11/04 08:46:02;;;;;;;12.85;3.05;;;;;;;;;;10339598;28;20116;-83
2021/11/04 08:51:02;;;;;;;3.30;2.30;;;;;;;;;;10336995;28;20022;-84
2021/11/04 08:56:02;;;;;;;11.02;2.45;;;;;;;;;;10340359;28;20733;-83
2021/11/04 09:01:03;;;;;;;8.93;2.10;;;;;;;;;;10352975;28;20030;-83
2021/11/04 09:06:03;;;;;;;2.00;1.83;;;;;;;;;;10336303;28;20276;-83
2021/11/04 09:11:03;;;;;;;2.00;1.73;;;;;;;;;;10355267;28;20145;-84
2021/11/04 09:16:04;;;;;;;2.15;1.88;;;;;;;;;;10355567;28;20361;-82
2021/11/04 09:21:04;;;;;;;1.17;1.13;;;;;;;;;;10339982;28;20033;-84
2021/11/04 09:26:04;;;;;;;2.33;1.50;;;;;;;;;;10357169;28;20026;-85
2021/11/04 09:31:05;;;;;;;0.88;0.88;;;;;;;;;;10349990;28;20082;-83
2021/11/04 09:36:06;;;;;;;4.55;1.10;;;;;;;;;;10347996;28;20426;-83
2021/11/04 09:41:07;;;;;;;1.15;1.08;;;;;;;;;;10337753;28;20027;-84
2021/11/04 09:46:07;;;;;;;3.03;1.90;;;;;;;;;;10335885;28;20045;-83
2021/11/04 09:51:08;;;;;;;1.63;1.33;;;;;;;;;;10340043;28;20133;-83
2021/11/04 09:56:08;;;;;;;4.53;1.07;;;;;;;;;;10334299;28;20129;-83
2021/11/04 10:01:23;;;;;;;3.28;2.17;;;;;;;;;;10337772;28;20841;-84
2021/11/04 10:06:27;;;;;;;1.02;0.98;;;;;;;;;;10338535;28;20037;-83
2021/11/04 10:11:33;;;;;;;1.55;1.48;;;;;;;;;;10338302;28;20054;-83
2021/11/04 10:16:33;;;;;;;1.90;1.75;;;;;;;;;;10338988;28;20041;-83
2021/11/04 10:21:34;;;;;;;6.18;1.27;;;;;;;;;;10336363;28;20452;-83
2021/11/04 10:26:37;;;;;;;4.88;1.75;;;;;;;;;;10334787;28;20161;-83
2021/11/04 10:31:41;;;;;;;17.92;3.10;;;;;;;;;;10336177;28;20558;-83
2021/11/04 10:36:43;;;;;;;15.85;2.85;;;;;;;;;;10348504;28;20045;-84
2021/11/04 10:41:44;;;;;;;11.93;3.03;;;;;;;;;;10346962;28;20030;-84
2021/11/04 10:46:57;;;;;;;6.47;3.80;;;;;;;;;;10366100;28;20026;-84
2021/11/04 10:51:58;;;;;;;6.03;3.40;;;;;;;;;;10392856;28;20029;-84
2021/11/04 10:56:58;;;;;;;6.07;2.60;;;;;;;;;;10372165;28;20030;-85
2021/11/04 11:01:59;;;;;;;3.83;1.88;;;;;;;;;;10365051;28;20026;-84
2021/11/04 11:06:59;;;;;;;2.38;1.55;;;;;;;;;;10379478;28;20065;-83
2021/11/04 11:12:00;;;;;;;3.20;2.13;;;;;;;;;;10369393;28;20086;-83
2021/11/04 11:17:01;;;;;;;4.00;1.08;;;;;;;;;;10349929;28;20041;-83
2021/11/04 11:22:01;;;;;;;2.00;1.80;;;;;;;;;;10359511;28;20129;-82
2021/11/04 11:27:04;;;;;;;2.35;1.00;;;;;;;;;;10343230;28;20038;-82
2021/11/04 11:32:05;;;;;;;4.60;1.23;;;;;;;;;;10351059;28;20026;-83
2021/11/04 11:37:15;;;;;;;3.45;1.52;;;;;;;;;;10358911;28;20037;-82
2021/11/04 11:42:25;;;;;;;1.83;0.85;;;;;;;;;;10345289;28;20364;-83
2021/11/04 11:47:28;;;;;;;2.10;0.95;;;;;;;;;;10343384;28;20023;-84
2021/11/04 11:52:40;;;;;;;1.02;0.85;;;;;;;;;;10342507;28;20054;-80
2021/11/04 11:57:59;;;;;;;0.70;0.70;;;;;;;;;;10339953;28;20381;-79
2021/11/04 12:02:59;;;;;;;1.13;0.82;;;;;;;;;;10339838;28;20080;-78
2021/11/04 12:08:09;;;;;;;1.48;1.38;;;;;;;;;;10339091;28;20169;-80
2021/11/04 12:13:30;;;;;;;3.45;0.82;;;;;;;;;;10339238;28;20050;-79
2021/11/04 12:18:30;;;;;;;0.57;0.57;;;;;;;;;;10340100;28;20026;-79
2021/11/04 12:23:31;;;;;;;2.88;1.05;;;;;;;;;;10339901;28;20030;-80
2021/11/04 12:28:52;;;;;;;3.00;1.02;;;;;;;;;;10338318;28;20467;-79
2021/11/04 12:33:52;;;;;;;12.88;1.20;;;;;;;;;;10336562;28;20410;-79
2021/11/04 12:38:52;;;;;;;2.00;1.50;;;;;;;;;;10337164;28;20121;-79
2021/11/04 12:43:58;;;;;;;10.30;2.83;;;;;;;;;;10337621;28;20026;-79
2021/11/04 12:49:05;;;;;;;11.30;3.13;;;;;;;;;;10338665;28;20029;-79
2021/11/04 12:54:05;;;;;;;6.05;2.92;;;;;;;;;;10337978;28;20030;-79
2021/11/04 12:59:05;;;;;;;10.57;3.22;;;;;;;;;;10337567;28;20046;-79
2021/11/04 13:04:20;;;;;;;10.55;2.35;;;;;;;;;;10354108;28;20018;-78
2021/11/04 13:09:20;;;;;;;8.85;1.77;;;;;;;;;;10338729;28;20024;-79
2021/11/04 13:14:21;;;;;;;9.68;2.45;;;;;;;;;;10336402;28;20068;-79
2021/11/04 13:19:22;;;;;;;6.93;1.70;;;;;;;;;;10337197;28;20033;-78
2021/11/04 13:24:22;;;;;;;4.75;1.30;;;;;;;;;;10338304;28;20084;-79
2021/11/04 13:29:22;;;;;;;3.38;1.42;;;;;;;;;;10351675;28;20034;-80
2021/11/04 13:34:32;;;;;;;1.50;1.00;;;;;;;;;;10334945;28;20042;-79
2021/11/04 13:39:32;;;;;;;0.80;0.80;;;;;;;;;;10352208;28;20058;-77
2021/11/04 13:44:33;;;;;;;1.05;0.75;;;;;;;;;;10335398;28;20066;-78
2021/11/04 13:49:34;;;;;;;1.05;1.05;;;;;;;;;;10350251;28;20033;-78
2021/11/04 13:54:40;;;;;;;0.68;0.68;;;;;;;;;;10350383;28;20493;-78
2021/11/04 13:59:41;;;;;;;9.18;2.38;;;;;;;;;;10335648;28;20030;-79
2021/11/04 14:04:51;;;;;;;1.75;0.90;;;;;;;;;;10333236;28;20038;-80
2021/11/04 14:10:04;;;;;;;3.13;1.45;;;;;;;;;;10334023;28;20066;-78
2021/11/04 14:15:11;;;;;;;1.17;0.90;;;;;;;;;;10334043;28;20434;-78
2021/11/04 14:20:11;;;;;;;1.05;1.02;;;;;;;;;;10333427;28;20455;-77
2021/11/04 14:25:12;;;;;;;1.30;1.25;;;;;;;;;;10334105;28;20042;-77
2021/11/04 14:30:12;;;;;;;4.63;1.85;;;;;;;;;;10334371;28;20097;-76
2021/11/04 14:35:13;;;;;;;8.00;4.15;;;;;;;;;;10334622;28;20029;-81
2021/11/04 14:40:13;;;;;;;4.88;2.63;;;;;;;;;;10354079;28;20093;-82
2021/11/04 14:45:16;;;;;;;4.67;2.47;;;;;;;;;;10336143;28;20026;-84
2021/11/04 14:50:17;;;;;;;3.40;2.55;;;;;;;;;;10352897;28;20311;-83
2021/11/04 14:55:17;;;;;;;5.85;1.67;;;;;;;;;;10335700;28;20054;-83
2021/11/04 15:00:17;;;;;;;1.85;1.08;;;;;;;;;;10337102;28;20034;-84
2021/11/04 15:05:17;;;;;;;1.00;1.00;;;;;;;;;;10352366;28;20118;-82
2021/11/04 15:10:20;;;;;;;3.00;1.02;;;;;;;;;;10338882;28;20062;-83
2021/11/04 15:15:20;;;;;;;1.00;1.00;;;;;;;;;;10354312;28;20048;-82
2021/11/04 15:20:21;;;;;;;1.75;1.48;;;;;;;;;;10382190;28;20034;-85
2021/11/04 15:25:21;;;;;;;4.22;2.05;;;;;;;;;;10376618;28;20040;-83
2021/11/04 15:30:21;;;;;;;2.70;2.13;;;;;;;;;;10373167;28;20038;-82
2021/11/04 15:35:21;;;;;;;3.95;2.30;;;;;;;;;;10362689;28;20031;-82
2021/11/04 15:40:22;;;;;;;1.63;1.52;;;;;;;;;;10363623;28;20018;-84
2021/11/04 15:45:22;;;;;;;1.77;1.67;;;;;;;;;;10363303;28;20034;-82
2021/11/04 15:50:22;;;;;;;3.55;2.80;;;;;;;;;;10381027;28;20643;-84
2021/11/04 15:55:22;;;;;;;2.90;2.40;;;;;;;;;;10357399;28;20038;-83
2021/11/04 16:00:23;;;;;;;8.13;3.95;;;;;;;;;;10356768;28;20086;-83
2021/11/04 16:05:23;;;;;;;10.07;4.95;;;;;;;;;;10358669;28;20084;-84
2021/11/04 16:10:23;;;;;;;5.55;3.17;;;;;;;;;;10366294;28;20115;-83
2021/11/04 16:15:23;;;;;;;7.95;3.17;;;;;;;;;;10361323;28;20029;-84
2021/11/04 16:20:24;;;;;;;12.48;4.05;;;;;;;;;;10359163;28;20492;-84
2021/11/04 16:25:24;;;;;;;14.50;3.00;;;;;;;;;;10350191;28;20045;-84
2021/11/04 16:30:24;;;;;;;11.02;3.17;;;;;;;;;;10354542;28;20011;-85
2021/11/04 16:35:25;;;;;;;4.95;3.00;;;;;;;;;;10350780;28;20038;-84
2021/11/04 16:40:27;;;;;;;7.60;4.35;;;;;;;;;;10357104;28;20026;-84
2021/11/04 16:45:27;;;;;;;6.30;2.90;;;;;;;;;;10357311;28;20113;-83
2021/11/04 16:50:27;;;;;;;3.08;2.50;;;;;;;;;;10373361;28;20029;-84
2021/11/04 16:55:27;;;;;;;13.85;3.45;;;;;;;;;;10366233;28;20038;-83
2021/11/04 17:00:27;;;;;;;11.97;3.90;;;;;;;;;;10362209;28;20261;-83
2021/11/04 17:05:28;;;;;;;5.80;2.38;;;;;;;;;;10357235;28;20775;-84
2021/11/04 17:10:29;;;;;;;2.95;2.70;;;;;;;;;;10362425;28;20058;-84
2021/11/04 17:15:29;;;;;;;5.32;3.72;;;;;;;;;;10380109;28;20060;-84
2021/11/04 17:20:29;;;;;;;5.63;3.58;;;;;;;;;;10365832;28;20076;-83
2021/11/04 17:25:32;;;;;;;6.93;3.73;;;;;;;;;;10364228;28;20057;-84
2021/11/04 17:30:32;;;;;;;5.10;3.22;;;;;;;;;;10364197;28;20319;-84
2021/11/04 17:35:34;;;;;;;7.23;3.53;;;;;;;;;;10366417;28;20038;-83
2021/11/04 17:40:35;;;;;;;5.47;2.75;;;;;;;;;;10356615;28;20272;-83
2021/11/04 17:45:35;;;;;;;6.60;3.42;;;;;;;;;;10356121;28;20380;-84
2021/11/04 17:50:37;;;;;;;6.47;3.10;;;;;;;;;;10355115;28;20030;-83
2021/11/04 17:55:37;;;;;;;3.38;3.10;;;;;;;;;;10349747;28;20362;-84
2021/11/04 18:00:38;;;;;;;8.73;4.38;;;;;;;;;;10347986;28;20026;-83
2021/11/04 18:05:40;;;;;;;8.70;2.80;;;;;;;;;;10354176;28;20022;-83
2021/11/04 18:10:40;;;;;;;3.20;2.58;;;;;;;;;;10349792;28;20058;-82
2021/11/04 18:15:40;;;;;;;3.80;1.77;;;;;;;;;;10340606;28;20026;-82
2021/11/04 18:20:40;;;;;;;2.80;2.55;;;;;;;;;;10336960;28;20110;-82
2021/11/04 18:25:41;;;;;;;7.70;2.47;;;;;;;;;;10365756;28;20030;-83
2021/11/04 18:30:41;;;;;;;3.65;3.35;;;;;;;;;;10345145;28;20031;-84
2021/11/04 18:35:41;;;;;;;4.18;2.58;;;;;;;;;;10341452;28;20041;-84
2021/11/04 18:40:41;;;;;;;1.98;1.88;;;;;;;;;;10371310;28;20029;-83
2021/11/04 18:45:42;;;;;;;4.35;2.78;;;;;;;;;;10362009;28;20288;-83
2021/11/04 18:50:42;;;;;;;2.63;2.38;;;;;;;;;;10336261;28;20181;-82
2021/11/04 18:55:42;;;;;;;9.27;3.60;;;;;;;;;;10333921;28;20030;-82
2021/11/04 19:00:43;;;;;;;4.95;3.05;;;;;;;;;;10335099;28;20095;-82
2021/11/04 19:05:43;;;;;;;2.42;2.22;;;;;;;;;;10334262;28;20101;-83
2021/11/04 19:10:44;;;;;;;4.78;3.20;;;;;;;;;;10349952;28;20085;-83
2021/11/04 19:15:44;;;;;;;3.25;2.33;;;;;;;;;;10335130;28;20030;-82
2021/11/04 19:20:44;;;;;;;5.18;2.42;;;;;;;;;;10349957;28;20525;-82
2021/11/04 19:25:46;;;;;;;11.38;3.08;;;;;;;;;;10353743;28;20026;-82
2021/11/04 19:30:46;;;;;;;9.90;4.53;;;;;;;;;;10341385;28;20468;-82
2021/11/04 19:35:46;;;;;;;6.07;2.65;;;;;;;;;;10341913;28;20153;-82
2021/11/04 19:40:47;;;;;;;4.75;2.47;;;;;;;;;;10357938;28;20113;-84
2021/11/04 19:45:47;;;;;;;14.18;3.38;;;;;;;;;;10339521;28;20034;-82
2021/11/04 19:50:47;;;;;;;2.87;2.57;;;;;;;;;;10340033;28;20037;-82
2021/11/04 19:55:48;;;;;;;5.30;2.55;;;;;;;;;;10340229;28;20749;-82
2021/11/04 20:00:48;;;;;;;4.90;2.22;;;;;;;;;;10339973;28;20456;-82
2021/11/04 20:05:48;;;;;;;2.45;2.08;;;;;;;;;;10341528;28;20491;-82
2021/11/04 20:10:48;;;;;;;9.90;2.83;;;;;;;;;;10341024;28;20153;-85
2021/11/04 20:15:49;;;;;;;10.43;2.85;;;;;;;;;;10345534;28;20022;-83
2021/11/04 20:20:49;;;;;;;5.23;1.80;;;;;;;;;;10341165;28;20462;-83
2021/11/04 20:25:49;;;;;;;8.85;1.90;;;;;;;;;;10356785;28;20769;-83
2021/11/04 20:30:50;;;;;;;10.17;2.27;;;;;;;;;;10339662;28;20022;-84
2021/11/04 20:35:50;;;;;;;3.73;2.60;;;;;;;;;;10359050;28;20351;-83
2021/11/04 20:40:50;;;;;;;8.90;1.95;;;;;;;;;;10342996;28;20315;-85
2021/11/04 20:45:51;;;;;;;3.08;2.30;;;;;;;;;;10351503;28;20061;-82
2021/11/04 20:50:51;;;;;;;8.45;5.53;;;;;;;;;;10353941;28;20090;-83
2021/11/04 20:55:51;;;;;;;13.45;2.17;;;;;;;;;;10352520;28;20030;-83
2021/11/04 21:00:51;;;;;;;3.40;1.98;;;;;;;;;;10338624;28;20069;-83
2021/11/04 21:05:52;;;;;;;5.53;2.03;;;;;;;;;;10346353;28;20448;-83
2021/11/04 21:10:52;;;;;;;1.45;1.35;;;;;;;;;;10337176;28;20299;-83
2021/11/04 21:15:53;;;;;;;2.55;1.80;;;;;;;;;;10339087;28;20053;-83
2021/11/04 21:20:53;;;;;;;1.80;1.70;;;;;;;;;;10336321;28;20026;-81
2021/11/04 21:25:54;;;;;;;3.00;2.10;;;;;;;;;;10352703;28;20034;-81
2021/11/04 21:30:54;;;;;;;6.63;1.70;;;;;;;;;;10336367;28;20105;-81
2021/11/04 21:35:55;;;;;;;1.38;1.33;;;;;;;;;;10336711;28;20480;-80
2021/11/04 21:40:55;;;;;;;6.07;1.75;;;;;;;;;;10336224;28;20026;-84
2021/11/04 21:45:55;;;;;;;1.88;1.77;;;;;;;;;;10351473;28;20041;-81
2021/11/04 21:50:56;;;;;;;9.27;2.05;;;;;;;;;;10335923;28;20038;-80
2021/11/04 21:55:57;;;;;;;3.65;2.55;;;;;;;;;;10336824;28;20596;-81
2021/11/04 22:00:58;;;;;;;8.95;3.47;;;;;;;;;;10349720;28;20042;-80
2021/11/04 22:05:58;;;;;;;9.18;3.38;;;;;;;;;;10380189;28;20034;-81
2021/11/04 22:10:59;;;;;;;5.72;2.35;;;;;;;;;;10364715;28;20132;-83
2021/11/04 22:15:59;;;;;;;6.43;3.35;;;;;;;;;;10343509;28;20022;-83
2021/11/04 22:21:00;;;;;;;8.07;3.25;;;;;;;;;;10339397;28;20388;-82
2021/11/04 22:26:00;;;;;;;4.53;2.83;;;;;;;;;;10350469;28;20026;-82
2021/11/04 22:31:01;;;;;;;3.03;2.15;;;;;;;;;;10337115;28;20034;-83
2021/11/04 22:36:01;;;;;;;4.72;2.47;;;;;;;;;;10351752;28;20081;-82
2021/11/04 22:41:02;;;;;;;16.88;2.90;;;;;;;;;;10352004;28;20049;-83
2021/11/04 22:46:02;;;;;;;5.45;2.30;;;;;;;;;;10338214;28;20190;-82
2021/11/04 22:51:03;;;;;;;2.95;2.53;;;;;;;;;;10334565;28;20033;-83
2021/11/04 22:56:03;;;;;;;4.30;1.80;;;;;;;;;;10336077;28;20416;-82
2021/11/04 23:01:06;;;;;;;10.13;3.55;;;;;;;;;;10342206;28;20094;-83
2021/11/04 23:06:09;;;;;;;7.57;2.35;;;;;;;;;;10348752;28;20042;-83
2021/11/04 23:11:09;;;;;;;5.72;1.60;;;;;;;;;;10343114;28;20058;-82
2021/11/04 23:16:10;;;;;;;10.38;1.23;;;;;;;;;;10341802;28;20023;-82
2021/11/04 23:21:10;;;;;;;4.78;2.17;;;;;;;;;;10341345;28;20026;-81
2021/11/04 23:26:10;;;;;;;6.55;1.95;;;;;;;;;;10342322;28;20080;-81
2021/11/04 23:31:11;;;;;;;4.88;2.03;;;;;;;;;;10341658;28;20276;-81
2021/11/04 23:36:11;;;;;;;2.10;1.83;;;;;;;;;;10341779;28;20030;-81
2021/11/04 23:41:11;;;;;;;4.75;1.75;;;;;;;;;;10340968;28;20278;-81
2021/11/04 23:46:11;;;;;;;10.20;1.45;;;;;;;;;;10356343;28;20030;-82
2021/11/04 23:51:12;;;;;;;4.80;1.98;;;;;;;;;;10340212;28;20034;-81
2021/11/04 23:56:12;;;;;;;1.15;1.00;;;;;;;;;;10340367;28;20472;-81
